createdAt,value
2018-05-27T00:00:28.676Z,16.4
2018-05-27T00:05:28.679Z,16.4
2018-05-27T00:10:28.841Z,16.4
2018-05-27T00:15:29.085Z,16.3
2018-05-27T00:20:28.696Z,16.2
2018-05-27T00:25:28.648Z,16.1
2018-05-27T00:30:41.212Z,16
2018-05-27T00:35:40.994Z,16.1
2018-05-27T00:40:40.800Z,16
2018-05-27T00:45:40.951Z,15.9
2018-05-27T00:50:40.995Z,15.8
2018-05-27T00:55:40.813Z,15.7
2018-05-27T01:00:40.949Z,15.8
2018-05-27T01:05:44.914Z,15.7
2018-05-27T01:10:45.020Z,15.5
2018-05-27T01:15:55.165Z,15.5
2018-05-27T01:20:55.012Z,15.6
2018-05-27T01:25:54.994Z,15.4
2018-05-27T01:30:55.135Z,15.5
2018-05-27T01:35:55.125Z,15.5
2018-05-27T01:40:55.048Z,15.4
2018-05-27T01:45:55.096Z,15.3
2018-05-27T01:50:56.592Z,15.3
2018-05-27T01:55:56.687Z,15.3
2018-05-27T02:01:08.445Z,15.2
2018-05-27T02:06:08.268Z,15.1
2018-05-27T02:11:08.287Z,15.1
2018-05-27T02:16:08.292Z,15
2018-05-27T02:21:08.177Z,15
2018-05-27T02:26:08.190Z,15
2018-05-27T02:31:08.268Z,14.8
2018-05-27T02:36:12.453Z,14.7
2018-05-27T02:41:12.360Z,14.7
2018-05-27T02:46:24.317Z,14.5
2018-05-27T02:51:24.200Z,14.5
2018-05-27T02:56:24.054Z,14.5
2018-05-27T03:01:24.162Z,14.6
2018-05-27T03:06:24.073Z,14.4
2018-05-27T03:11:24.242Z,14.5
2018-05-27T03:16:24.273Z,14.4
2018-05-27T03:21:25.881Z,14.5
2018-05-27T03:26:25.590Z,14.5
2018-05-27T03:31:38.403Z,14.4
2018-05-27T03:36:38.556Z,14.3
2018-05-27T03:41:38.374Z,14.4
2018-05-27T03:46:38.296Z,14.4
2018-05-27T03:51:38.149Z,14.4
2018-05-27T03:56:38.381Z,14.4
2018-05-27T04:01:39.303Z,14.5
2018-05-27T04:06:38.666Z,14.8
2018-05-27T04:11:38.340Z,15.2
2018-05-27T04:16:50.394Z,15.4
2018-05-27T04:21:50.299Z,15.6
2018-05-27T04:26:50.115Z,15.7
2018-05-27T04:31:50.277Z,16
2018-05-27T04:36:50.332Z,16.1
2018-05-27T04:41:50.240Z,16.3
2018-05-27T04:46:50.497Z,16.6
2018-05-27T04:51:50.583Z,16.9
2018-05-27T04:56:50.464Z,17.2
2018-05-27T05:02:03.870Z,17.5
2018-05-27T05:07:03.538Z,17.8
2018-05-27T05:12:03.570Z,18
2018-05-27T05:17:03.469Z,18.2
2018-05-27T05:22:03.435Z,18.3
2018-05-27T05:27:03.322Z,18.5
2018-05-27T05:32:03.678Z,18.8
2018-05-27T05:37:04.267Z,19.1
2018-05-27T05:42:04.198Z,19.2
2018-05-27T05:47:16.337Z,19.1
2018-05-27T05:52:16.375Z,19.2
2018-05-27T05:57:16.258Z,19.2
2018-05-27T06:02:16.181Z,19.7
2018-05-27T06:07:16.062Z,20.1
2018-05-27T06:12:16.087Z,20.4
2018-05-27T06:17:16.070Z,20.9
2018-05-27T06:22:17.041Z,21.1
2018-05-27T06:27:16.598Z,21.2
2018-05-27T06:32:16.706Z,21.8
2018-05-27T06:37:16.616Z,22
2018-05-27T06:42:16.851Z,22.3
2018-05-27T06:47:16.811Z,22.3
2018-05-27T06:52:16.622Z,22.1
2018-05-27T06:57:28.787Z,22.3
2018-05-27T07:02:28.499Z,22.4
2018-05-27T07:07:28.496Z,22.6
2018-05-27T07:12:28.522Z,22.9
2018-05-27T07:17:28.750Z,23.3
2018-05-27T07:22:28.557Z,23.3
2018-05-27T07:27:28.783Z,23.6
2018-05-27T07:32:31.290Z,23.9
2018-05-27T07:37:30.788Z,23.9
2018-05-27T07:42:43.283Z,24.2
2018-05-27T07:47:43.246Z,24.4
2018-05-27T07:52:43.042Z,24.4
2018-05-27T07:57:43.056Z,24.6
2018-05-27T08:02:43.205Z,24.8
2018-05-27T08:07:43.247Z,24.9
2018-05-27T08:12:43.408Z,24.9
2018-05-27T08:17:43.226Z,25
2018-05-27T08:22:43.218Z,25.3
2018-05-27T08:27:54.910Z,25
2018-05-27T08:32:54.613Z,25.7
2018-05-27T08:37:54.615Z,25.7
2018-05-27T08:42:54.648Z,25.9
2018-05-27T08:47:54.833Z,26.2
2018-05-27T08:52:54.906Z,26.1
2018-05-27T08:57:54.907Z,26.4
2018-05-27T09:02:54.854Z,26.4
2018-05-27T09:07:54.884Z,26.6
2018-05-27T09:13:07.067Z,26.7
2018-05-27T09:18:06.883Z,26.8
2018-05-27T09:23:07.131Z,26.7
2018-05-27T09:28:06.949Z,27.2
2018-05-27T09:33:06.851Z,27.3
2018-05-27T09:38:06.908Z,27.4
2018-05-27T09:43:06.987Z,26.9
2018-05-27T09:48:07.571Z,27.6
2018-05-27T09:53:07.552Z,27.4
2018-05-27T09:58:21.526Z,27.4
2018-05-27T10:03:21.433Z,27.4
2018-05-27T10:08:21.492Z,27.5
2018-05-27T10:13:21.347Z,27.6
2018-05-27T10:18:21.541Z,27.3
2018-05-27T10:23:21.320Z,27.6
2018-05-27T10:28:21.480Z,27.8
2018-05-27T10:33:21.545Z,28
2018-05-27T10:38:21.345Z,28.3
2018-05-27T10:43:21.483Z,28.1
2018-05-27T10:48:21.534Z,28.2
2018-05-27T10:53:21.371Z,28.4
2018-05-27T10:58:22.155Z,27.9
2018-05-27T11:03:21.862Z,28
2018-05-27T11:08:34.545Z,28
2018-05-27T11:13:34.392Z,27.9
2018-05-27T11:18:34.419Z,28.2
2018-05-27T11:23:34.452Z,28.5
2018-05-27T11:28:34.312Z,28.5
2018-05-27T11:33:34.272Z,28.9
2018-05-27T11:38:34.481Z,29.2
2018-05-27T11:43:39.544Z,29.3
2018-05-27T11:48:39.476Z,29.3
2018-05-27T11:53:52.280Z,28.8
2018-05-27T11:58:52.445Z,29
2018-05-27T12:03:53.005Z,29.2
2018-05-27T12:08:52.214Z,29
2018-05-27T12:13:52.251Z,29.3
2018-05-27T12:18:52.144Z,29.8
2018-05-27T12:23:52.021Z,29.8
2018-05-27T12:28:52.840Z,29.8
2018-05-27T12:33:52.560Z,28.8
2018-05-27T12:39:05.574Z,28.6
2018-05-27T12:44:05.338Z,28.2
2018-05-27T12:49:06.583Z,27.7
2018-05-27T12:54:05.592Z,27.3
2018-05-27T12:59:05.448Z,27.2
2018-05-27T13:04:05.573Z,26.9
2018-05-27T13:09:05.359Z,26.8
2018-05-27T13:14:09.818Z,26.7
2018-05-27T13:19:09.758Z,26.4
2018-05-27T13:24:19.483Z,26.3
2018-05-27T13:29:19.144Z,26.1
2018-05-27T13:34:19.622Z,26.1
2018-05-27T13:39:19.843Z,26
2018-05-27T13:44:20.299Z,26
2018-05-27T13:49:19.625Z,25.9
2018-05-27T13:54:19.357Z,26
2018-05-27T13:59:21.112Z,26
2018-05-27T14:04:21.041Z,26.1
2018-05-27T14:09:34.088Z,26.1
2018-05-27T14:14:34.038Z,26
2018-05-27T14:19:33.819Z,26.1
2018-05-27T14:24:33.945Z,26.2
2018-05-27T14:29:34.019Z,26.2
2018-05-27T14:34:33.803Z,26.2
2018-05-27T14:39:33.963Z,26.2
2018-05-27T14:44:37.413Z,26.2
2018-05-27T14:49:36.158Z,26.2
2018-05-27T14:54:48.678Z,26.1
2018-05-27T14:59:48.361Z,26
2018-05-27T15:04:51.563Z,26
2018-05-27T15:09:48.433Z,26
2018-05-27T15:14:48.562Z,25.9
2018-05-27T15:19:48.454Z,25.7
2018-05-27T15:24:48.428Z,25.6
2018-05-27T15:29:48.428Z,25.6
2018-05-27T15:34:50.098Z,25.5
2018-05-27T15:39:48.546Z,25.6
2018-05-27T15:44:48.420Z,25.6
2018-05-27T15:49:48.595Z,25.4
2018-05-27T15:54:49.132Z,25.3
2018-05-27T15:59:49.119Z,25.4
2018-05-27T16:05:02.234Z,25.4
2018-05-27T16:10:01.950Z,25.2
2018-05-27T16:15:01.943Z,25.1
2018-05-27T16:20:01.978Z,25
2018-05-27T16:25:01.963Z,24.9
2018-05-27T16:30:01.948Z,24.8
2018-05-27T16:35:01.985Z,24.6
2018-05-27T16:40:05.045Z,24.6
2018-05-27T16:45:04.744Z,24.5
2018-05-27T16:50:15.175Z,24.5
2018-05-27T16:55:15.420Z,24.4
2018-05-27T17:00:14.891Z,24.3
2018-05-27T17:05:14.832Z,24.2
2018-05-27T17:10:14.829Z,24.1
2018-05-27T17:15:14.846Z,24
2018-05-27T17:20:15.033Z,23.9
2018-05-27T17:25:15.066Z,23.8
2018-05-27T17:30:15.032Z,23.7
2018-05-27T17:35:27.017Z,23.6
2018-05-27T17:40:26.556Z,23.6
2018-05-27T17:45:26.532Z,23.5
2018-05-27T17:50:26.502Z,23.4
2018-05-27T17:55:26.709Z,23.3
2018-05-27T18:00:26.481Z,23.3
2018-05-27T18:05:26.527Z,23.2
2018-05-27T18:10:28.554Z,23.1
2018-05-27T18:15:28.242Z,23
2018-05-27T18:20:40.804Z,22.9
2018-05-27T18:25:40.719Z,22.7
2018-05-27T18:30:40.510Z,22.6
2018-05-27T18:35:40.541Z,22.6
2018-05-27T18:40:40.764Z,22.4
2018-05-27T18:45:40.782Z,22.4
2018-05-27T18:50:40.537Z,22.3
2018-05-27T18:55:40.823Z,22.1
2018-05-27T19:00:40.961Z,22.1
2018-05-27T19:05:53.217Z,22
2018-05-27T19:10:53.165Z,22
2018-05-27T19:15:52.920Z,21.9
2018-05-27T19:20:53.110Z,21.9
2018-05-27T19:25:52.947Z,21.9
2018-05-27T19:30:52.938Z,21.8
2018-05-27T19:35:52.943Z,21.6
2018-05-27T19:40:54.777Z,21.5
2018-05-27T19:45:54.851Z,21.4
2018-05-27T19:51:12.640Z,21.3
2018-05-27T19:56:08.796Z,21.3
2018-05-27T20:01:08.840Z,21.1
2018-05-27T20:06:08.936Z,21
2018-05-27T20:11:09.018Z,20.8
2018-05-27T20:16:08.837Z,20.7
2018-05-27T20:21:09.043Z,20.6
2018-05-27T20:26:09.731Z,20
2018-05-27T20:31:09.663Z,20.2
2018-05-27T20:36:21.996Z,20.3
2018-05-27T20:41:21.903Z,20.2
2018-05-27T20:46:21.984Z,20.1
2018-05-27T20:51:21.881Z,19.8
2018-05-27T20:56:23.216Z,19.9
2018-05-27T21:01:21.708Z,19.8
2018-05-27T21:06:21.722Z,19.8
2018-05-27T21:11:24.767Z,19.7
2018-05-27T21:16:24.609Z,19.6
2018-05-27T21:21:36.774Z,19.6
2018-05-27T21:26:36.635Z,19.4
2018-05-27T21:31:36.680Z,19.4
2018-05-27T21:36:36.512Z,19.5
2018-05-27T21:41:36.897Z,19.4
2018-05-27T21:46:36.481Z,19.3
2018-05-27T21:51:37.497Z,19.4
2018-05-27T21:56:39.664Z,19.3
2018-05-27T22:01:39.538Z,19.2
2018-05-27T22:06:51.950Z,19.2
2018-05-27T22:11:51.898Z,19.2
2018-05-27T22:16:51.825Z,18.9
2018-05-27T22:21:51.891Z,19
2018-05-27T22:26:51.679Z,19
2018-05-27T22:31:51.823Z,19
2018-05-27T22:36:51.724Z,19
2018-05-27T22:41:52.474Z,18.9
2018-05-27T22:46:52.321Z,18.9
2018-05-27T22:52:05.291Z,18.7
2018-05-27T22:57:05.207Z,18.7
2018-05-27T23:02:05.020Z,18.7
2018-05-27T23:07:05.174Z,18.7
2018-05-27T23:12:05.446Z,18.7
2018-05-27T23:17:05.038Z,18.6
2018-05-27T23:22:05.157Z,18.5
2018-05-27T23:27:05.229Z,18.5
2018-05-27T23:32:05.171Z,18.5
2018-05-27T23:37:05.237Z,18.4
2018-05-27T23:42:05.046Z,18.3
2018-05-27T23:47:05.281Z,18.3
2018-05-27T23:52:06.608Z,18.1
2018-05-27T23:57:07.540Z,18
